Time,TemperatureF,DewpointF,PressureIn,WindDirection,WindDirectionDegrees,WindSpeedMPH,WindSpeedGustMPH,Humidity,HourlyPrecipIn,Conditions,Clouds,dailyrainin,SoftwareType,DateUTC
2013-08-26 00:02:00,51.4,40.0,29.72,NW,315,1.0,4.0,66,0.00,,,0.00,weatherlink.com 1.10,2013-08-26 08:02:00,
2013-08-26 00:17:00,50.8,37.0,29.73,NW,315,1.0,1.0,60,0.00,,,0.00,weatherlink.com 1.10,2013-08-26 08:17:00,
2013-08-26 00:32:00,51.4,38.0,29.73,NW,315,0.0,0.0,61,0.00,,,0.00,weatherlink.com 1.10,2013-08-26 08:32:00,
2013-08-26 00:47:00,50.5,38.0,29.73,NW,315,0.0,2.0,63,0.00,,,0.00,weatherlink.com 1.10,2013-08-26 08:47:00,
2013-08-26 01:02:00,49.6,40.0,29.73,NW,315,1.0,2.0,70,0.00,,,0.00,weatherlink.com 1.10,2013-08-26 09:02:00,
2013-08-26 01:17:00,48.0,38.0,29.73,NW,315,2.0,3.0,69,0.00,,,0.00,weatherlink.com 1.10,2013-08-26 09:17:00,
2013-08-26 01:32:00,46.5,38.0,29.73,NW,315,2.0,4.0,72,0.00,,,0.00,weatherlink.com 1.10,2013-08-26 09:32:00,
2013-08-26 01:47:00,47.1,38.0,29.73,NW,315,1.0,4.0,71,0.00,,,0.00,weatherlink.com 1.10,2013-08-26 09:47:00,
2013-08-26 02:02:00,47.3,38.0,29.74,NW,315,1.0,3.0,71,0.00,,,0.00,weatherlink.com 1.10,2013-08-26 10:02:00,
2013-08-26 02:17:00,47.7,39.0,29.74,NW,315,1.0,2.0,72,0.00,,,0.00,weatherlink.com 1.10,2013-08-26 10:17:00,
2013-08-26 02:32:00,47.4,40.0,29.74,NW,315,1.0,2.0,74,0.00,,,0.00,weatherlink.com 1.10,2013-08-26 10:32:00,
2013-08-26 02:48:00,46.7,40.0,29.74,NW,315,0.0,3.0,76,0.00,,,0.00,weatherlink.com 1.10,2013-08-26 10:48:00,
2013-08-26 03:03:00,46.4,40.0,29.74,NW,315,1.0,4.0,78,0.00,,,0.00,weatherlink.com 1.10,2013-08-26 11:03:00,
2013-08-26 03:18:00,46.8,40.0,29.73,NW,315,2.0,3.0,78,0.00,,,0.00,weatherlink.com 1.10,2013-08-26 11:18:00,
2013-08-26 03:33:00,47.4,41.0,29.74,NW,315,2.0,3.0,77,0.00,,,0.00,weatherlink.com 1.10,2013-08-26 11:33:00,
2013-08-26 03:48:00,47.4,40.0,29.74,NW,315,3.0,4.0,76,0.00,,,0.00,weatherlink.com 1.10,2013-08-26 11:48:00,
2013-08-26 04:03:00,47.4,41.0,29.74,NW,315,2.0,3.0,77,0.00,,,0.00,weatherlink.com 1.10,2013-08-26 12:03:00,
2013-08-26 04:18:00,47.5,41.0,29.74,NW,315,2.0,3.0,77,0.00,,,0.00,weatherlink.com 1.10,2013-08-26 12:18:00,
2013-08-26 04:33:00,47.6,41.0,29.74,NW,315,0.0,2.0,77,0.00,,,0.00,weatherlink.com 1.10,2013-08-26 12:33:00,
2013-08-26 04:48:00,48.8,42.0,29.74,NW,315,1.0,2.0,76,0.00,,,0.00,weatherlink.com 1.10,2013-08-26 12:48:00,
2013-08-26 05:03:00,49.1,41.0,29.73,NW,315,0.0,2.0,74,0.00,,,0.00,weatherlink.com 1.10,2013-08-26 13:03:00,
2013-08-26 05:18:00,49.1,41.0,29.73,NW,315,1.0,2.0,74,0.00,,,0.00,weatherlink.com 1.10,2013-08-26 13:18:00,
2013-08-26 05:33:00,48.9,41.0,29.73,NW,315,1.0,2.0,74,0.00,,,0.00,weatherlink.com 1.10,2013-08-26 13:33:00,
2013-08-26 05:48:00,47.4,40.0,29.73,NW,315,1.0,2.0,76,0.00,,,0.00,weatherlink.com 1.10,2013-08-26 13:48:00,
2013-08-26 06:03:00,46.5,40.0,29.73,NW,315,1.0,2.0,78,0.00,,,0.00,weatherlink.com 1.10,2013-08-26 14:03:00,
2013-08-26 06:18:00,46.0,40.0,29.73,NW,315,3.0,4.0,79,0.00,,,0.00,weatherlink.com 1.10,2013-08-26 14:18:00,
2013-08-26 06:33:00,45.9,39.0,29.73,NW,315,2.0,4.0,77,0.00,,,0.00,weatherlink.com 1.10,2013-08-26 14:33:00,
2013-08-26 06:48:00,46.1,39.0,29.73,NW,315,2.0,3.0,75,0.00,,,0.00,weatherlink.com 1.10,2013-08-26 14:48:00,
2013-08-26 07:03:00,46.8,39.0,29.73,NW,315,1.0,2.0,73,0.00,,,0.00,weatherlink.com 1.10,2013-08-26 15:03:00,
2013-08-26 07:18:00,47.3,39.0,29.73,NW,315,1.0,2.0,73,0.00,,,0.00,weatherlink.com 1.10,2013-08-26 15:18:00,
2013-08-26 07:33:00,47.8,39.0,29.73,NW,315,2.0,3.0,72,0.00,,,0.00,weatherlink.com 1.10,2013-08-26 15:33:00,
2013-08-26 07:48:00,49.0,40.0,29.73,NW,315,1.0,3.0,70,0.00,,,0.00,weatherlink.com 1.10,2013-08-26 15:48:00,
2013-08-26 08:03:00,48.5,39.0,29.73,NW,315,1.0,3.0,70,0.00,,,0.00,weatherlink.com 1.10,2013-08-26 16:03:00,
2013-08-26 08:18:00,47.7,39.0,29.73,NW,315,2.0,3.0,73,0.00,,,0.00,weatherlink.com 1.10,2013-08-26 16:18:00,
2013-08-26 08:33:00,49.5,41.0,29.73,NW,315,0.0,3.0,73,0.00,,,0.00,weatherlink.com 1.10,2013-08-26 16:33:00,
2013-08-26 08:48:00,51.9,43.0,29.73,NW,315,0.0,2.0,72,0.00,,,0.00,weatherlink.com 1.10,2013-08-26 16:48:00,
2013-08-26 09:02:00,54.2,44.0,29.73,NNW,329,0.0,3.0,69,0.00,,,0.00,weatherlink.com 1.10,2013-08-26 17:02:00,
2013-08-26 09:18:00,54.0,43.0,29.73,NNE,30,0.0,4.0,67,0.00,,,0.00,weatherlink.com 1.10,2013-08-26 17:18:00,
2013-08-26 09:33:00,54.0,44.0,29.73,NNE,30,0.0,3.0,68,0.00,,,0.00,weatherlink.com 1.10,2013-08-26 17:33:00,
2013-08-26 09:48:00,54.7,44.0,29.72,NE,42,0.0,5.0,68,0.00,,,0.00,weatherlink.com 1.10,2013-08-26 17:48:00,
2013-08-26 10:03:00,55.5,44.0,29.73,NE,48,0.0,5.0,66,0.00,,,0.00,weatherlink.com 1.10,2013-08-26 18:03:00,
2013-08-26 10:18:00,56.4,44.0,29.73,NE,49,2.0,5.0,63,0.00,,,0.00,weatherlink.com 1.10,2013-08-26 18:18:00,
2013-08-26 10:33:00,57.1,44.0,29.73,NE,56,1.0,4.0,62,0.00,,,0.00,weatherlink.com 1.10,2013-08-26 18:33:00,
2013-08-26 10:48:00,57.8,46.0,29.73,ESE,119,7.0,7.0,66,0.00,,,0.00,weatherlink.com 1.10,2013-08-26 18:48:00,
2013-08-26 11:03:00,56.9,45.0,29.73,ESE,115,2.0,7.0,64,0.00,,,0.00,weatherlink.com 1.10,2013-08-26 19:03:00,
2013-08-26 11:18:00,56.8,44.0,29.72,ESE,105,4.0,7.0,63,0.00,,,0.00,weatherlink.com 1.10,2013-08-26 19:18:00,
2013-08-26 11:33:00,57.3,44.0,29.72,ESE,104,4.0,8.0,62,0.00,,,0.00,weatherlink.com 1.10,2013-08-26 19:33:00,
2013-08-26 11:48:00,57.5,46.0,29.72,ESE,112,3.0,8.0,65,0.00,,,0.00,weatherlink.com 1.10,2013-08-26 19:48:00,
2013-08-26 12:03:00,58.3,45.0,29.72,SE,142,3.0,6.0,62,0.00,,,0.00,weatherlink.com 1.10,2013-08-26 20:03:00,
2013-08-26 12:18:00,57.6,44.0,29.72,SE,129,1.0,9.0,61,0.00,,,0.00,weatherlink.com 1.10,2013-08-26 20:18:00,
2013-08-26 12:33:00,57.6,45.0,29.72,East,92,1.0,7.0,63,0.00,,,0.00,weatherlink.com 1.10,2013-08-26 20:33:00,
2013-08-26 12:49:00,57.7,45.0,29.72,ESE,115,7.0,7.0,62,0.00,,,0.00,weatherlink.com 1.10,2013-08-26 20:49:00,
2013-08-26 13:03:00,57.6,44.0,29.72,ENE,59,2.0,7.0,60,0.00,,,0.00,weatherlink.com 1.10,2013-08-26 21:03:00,
2013-08-26 13:18:00,57.5,45.0,29.72,ENE,61,4.0,8.0,64,0.00,,,0.00,weatherlink.com 1.10,2013-08-26 21:18:00,
2013-08-26 13:33:00,57.3,45.0,29.72,ESE,118,7.0,8.0,63,0.00,,,0.00,weatherlink.com 1.10,2013-08-26 21:33:00,
2013-08-26 13:48:00,57.9,45.0,29.72,ESE,113,4.0,10.0,62,0.00,,,0.00,weatherlink.com 1.10,2013-08-26 21:48:00,
2013-08-26 14:03:00,58.4,45.0,29.72,SE,128,2.0,8.0,62,0.00,,,0.00,weatherlink.com 1.10,2013-08-26 22:03:00,
2013-08-26 14:19:00,58.5,45.0,29.71,SSW,201,4.0,5.0,62,0.00,,,0.00,weatherlink.com 1.10,2013-08-26 22:19:00,
2013-08-26 14:34:00,59.4,45.0,29.71,ESE,120,0.0,4.0,59,0.00,,,0.00,weatherlink.com 1.10,2013-08-26 22:34:00,
2013-08-26 14:49:00,59.3,45.0,29.71,ESE,121,2.0,7.0,59,0.00,,,0.00,weatherlink.com 1.10,2013-08-26 22:49:00,
2013-08-26 15:04:00,59.7,46.0,29.71,SSW,192,2.0,6.0,62,0.00,,,0.00,weatherlink.com 1.10,2013-08-26 23:04:00,
2013-08-26 15:19:00,59.5,46.0,29.71,South,182,2.0,6.0,62,0.00,,,0.00,weatherlink.com 1.10,2013-08-26 23:19:00,
2013-08-26 15:34:00,59.2,47.0,29.71,SSW,196,1.0,6.0,65,0.00,,,0.00,weatherlink.com 1.10,2013-08-26 23:34:00,
2013-08-26 15:49:00,59.5,46.0,29.72,SW,216,4.0,5.0,61,0.00,,,0.00,weatherlink.com 1.10,2013-08-26 23:49:00,
2013-08-26 16:04:00,59.6,47.0,29.72,SW,227,4.0,5.0,63,0.00,,,0.00,weatherlink.com 1.10,2013-08-27 00:04:00,
2013-08-26 16:19:00,59.1,48.0,29.72,SW,223,3.0,6.0,66,0.00,,,0.00,weatherlink.com 1.10,2013-08-27 00:19:00,
2013-08-26 16:34:00,58.6,47.0,29.72,SW,223,2.0,6.0,65,0.00,,,0.00,weatherlink.com 1.10,2013-08-27 00:34:00,
2013-08-26 16:49:00,58.4,47.0,29.72,SW,227,4.0,5.0,66,0.00,,,0.00,weatherlink.com 1.10,2013-08-27 00:49:00,
2013-08-26 17:04:00,57.7,47.0,29.72,South,182,3.0,5.0,68,0.00,,,0.00,weatherlink.com 1.10,2013-08-27 01:04:00,
2013-08-26 17:19:00,57.7,48.0,29.72,SSW,199,2.0,6.0,69,0.00,,,0.00,weatherlink.com 1.10,2013-08-27 01:19:00,
2013-08-26 17:34:00,57.2,48.0,29.72,SSE,162,0.0,6.0,72,0.00,,,0.00,weatherlink.com 1.10,2013-08-27 01:34:00,
2013-08-26 17:49:00,57.6,47.0,29.72,South,180,3.0,6.0,68,0.00,,,0.00,weatherlink.com 1.10,2013-08-27 01:49:00,
2013-08-26 18:04:00,56.4,47.0,29.72,SSW,192,4.0,5.0,71,0.00,,,0.00,weatherlink.com 1.10,2013-08-27 02:04:00,
2013-08-26 18:19:00,56.0,48.0,29.72,SSE,153,3.0,4.0,75,0.00,,,0.00,weatherlink.com 1.10,2013-08-27 02:19:00,
2013-08-26 18:34:00,56.1,49.0,29.72,SSW,199,0.0,4.0,77,0.00,,,0.00,weatherlink.com 1.10,2013-08-27 02:34:00,
2013-08-26 18:49:00,56.6,50.0,29.72,SW,222,1.0,4.0,78,0.00,,,0.00,weatherlink.com 1.10,2013-08-27 02:49:00,
2013-08-26 19:04:00,56.0,50.0,29.72,SW,215,2.0,3.0,79,0.00,,,0.00,weatherlink.com 1.10,2013-08-27 03:04:00,
2013-08-26 19:19:00,55.7,49.0,29.72,SW,215,1.0,3.0,78,0.00,,,0.00,weatherlink.com 1.10,2013-08-27 03:19:00,
2013-08-26 19:34:00,55.7,49.0,29.72,SW,215,0.0,3.0,79,0.00,,,0.00,weatherlink.com 1.10,2013-08-27 03:34:00,
2013-08-26 19:49:00,55.3,50.0,29.72,South,178,1.0,3.0,81,0.00,,,0.00,weatherlink.com 1.10,2013-08-27 03:49:00,
2013-08-26 20:04:00,54.3,47.0,29.72,South,178,0.0,3.0,77,0.00,,,0.00,weatherlink.com 1.10,2013-08-27 04:04:00,
2013-08-26 20:19:00,53.5,46.0,29.72,South,178,0.0,3.0,77,0.00,,,0.00,weatherlink.com 1.10,2013-08-27 04:19:00,
2013-08-26 20:34:00,53.1,47.0,29.72,South,178,1.0,2.0,79,0.00,,,0.00,weatherlink.com 1.10,2013-08-27 04:34:00,
2013-08-26 20:49:00,52.0,46.0,29.73,South,178,1.0,2.0,81,0.00,,,0.00,weatherlink.com 1.10,2013-08-27 04:49:00,
2013-08-26 21:04:00,51.4,46.0,29.73,South,178,0.0,1.0,82,0.00,,,0.00,weatherlink.com 1.10,2013-08-27 05:04:00,
2013-08-26 21:19:00,51.5,46.0,29.74,South,178,0.0,2.0,80,0.00,,,0.00,weatherlink.com 1.10,2013-08-27 05:19:00,
2013-08-26 21:34:00,52.0,46.0,29.74,South,178,0.0,4.0,79,0.00,,,0.00,weatherlink.com 1.10,2013-08-27 05:34:00,
2013-08-26 21:49:00,52.1,46.0,29.75,South,178,1.0,2.0,79,0.00,,,0.00,weatherlink.com 1.10,2013-08-27 05:49:00,
2013-08-26 22:04:00,52.0,46.0,29.75,WNW,290,0.0,2.0,80,0.00,,,0.00,weatherlink.com 1.10,2013-08-27 06:04:00,
2013-08-26 22:19:00,51.9,46.0,29.75,WNW,290,1.0,3.0,81,0.00,,,0.00,weatherlink.com 1.10,2013-08-27 06:19:00,
2013-08-26 22:34:00,51.7,46.0,29.75,WNW,290,0.0,2.0,82,0.00,,,0.00,weatherlink.com 1.10,2013-08-27 06:34:00,
2013-08-26 22:49:00,51.7,46.0,29.75,WNW,290,1.0,2.0,81,0.00,,,0.00,weatherlink.com 1.10,2013-08-27 06:49:00,
2013-08-26 23:04:00,51.4,46.0,29.75,NW,323,2.0,3.0,83,0.00,,,0.00,weatherlink.com 1.10,2013-08-27 07:04:00,
2013-08-26 23:19:00,51.7,47.0,29.75,NW,325,0.0,3.0,83,0.00,,,0.00,weatherlink.com 1.10,2013-08-27 07:19:00,
2013-08-26 23:34:00,52.1,47.0,29.75,NW,325,0.0,0.0,82,0.00,,,0.00,weatherlink.com 1.10,2013-08-27 07:34:00,
2013-08-26 23:49:00,52.7,47.0,29.75,NW,325,0.0,1.0,80,0.00,,,0.00,weatherlink.com 1.10,2013-08-27 07:49:00,